Time;durP1;ratioP1;P1;durP2;ratioP2;P2;SDS_P1;SDS_P2;PMS_P1;PMS_P2;Temp;Humidity;BMP_temperature;BMP_pressure;BME280_temperature;BME280_humidity;BME280_pressure;Samples;Min_cycle;Max_cycle;Signal;HPM_P1;HPM_P2
2021/05/22 00:01:03;;;;;;;3.17;2.90;;;13.60;54.00;;;;;;5050581;28;20549;-61
2021/05/22 00:03:29;;;;;;;3.07;2.87;;;13.60;1.00;;;;;;5053244;28;20183;-61
2021/05/22 00:05:55;;;;;;;2.70;2.50;;;13.60;1.00;;;;;;5047553;28;20191;-61
2021/05/22 00:08:21;;;;;;;3.97;2.60;;;13.60;28.40;;;;;;5044712;28;20446;-61
2021/05/22 00:10:47;;;;;;;2.90;2.70;;;13.60;99.90;;;;;;5051810;28;20596;-61
2021/05/22 00:13:15;;;;;;;2.67;2.57;;;13.60;97.40;;;;;;5056850;28;20517;-61
2021/05/22 00:15:40;;;;;;;4.40;2.57;;;13.60;1.00;;;;;;5051164;28;20467;-61
2021/05/22 00:18:06;;;;;;;2.77;2.63;;;13.60;1.00;;;;;;5048967;28;20434;-61
2021/05/22 00:20:32;;;;;;;2.90;2.70;;;13.70;1.00;;;;;;5056714;28;20209;-61
2021/05/22 00:22:57;;;;;;;3.00;2.80;;;13.70;1.00;;;;;;5049027;28;20278;-61
2021/05/22 00:25:23;;;;;;;3.47;2.90;;;13.60;1.00;;;;;;5050691;28;20989;-61
2021/05/22 00:27:48;;;;;;;3.03;2.60;;;13.60;1.00;;;;;;5046050;28;20190;-61
2021/05/22 00:30:14;;;;;;;2.67;2.47;;;13.60;99.90;;;;;;5043721;28;20711;-61
2021/05/22 00:32:41;;;;;;;3.17;2.67;;;13.60;99.90;;;;;;5045990;28;20186;-61
2021/05/22 00:35:07;;;;;;;2.60;2.40;;;13.60;1.00;;;;;;5048133;28;21065;-61
2021/05/22 00:37:32;;;;;;;3.00;2.80;;;13.60;43.80;;;;;;5045561;28;21288;-61
2021/05/22 00:39:58;;;;;;;2.90;2.70;;;13.60;9.20;;;;;;5047677;28;20442;-61
2021/05/22 00:42:24;;;;;;;3.63;2.57;;;13.60;89.50;;;;;;5050495;28;20184;-62
2021/05/22 00:45:08;;;;;;;3.00;2.80;;;13.60;49.70;;;;;;5052157;28;20723;-61
2021/05/22 00:47:36;;;;;;;2.70;2.50;;;13.60;99.90;;;;;;5048336;28;21480;-61
2021/05/22 00:50:04;;;;;;;2.90;2.70;;;13.60;99.90;;;;;;5048432;28;20914;-62
2021/05/22 00:52:29;;;;;;;2.37;2.27;;;13.60;99.90;;;;;;5044483;28;20443;-61
2021/05/22 00:54:55;;;;;;;3.00;2.80;;;13.60;99.90;;;;;;5048172;28;20459;-61
2021/05/22 00:57:21;;;;;;;2.50;2.33;;;13.60;99.90;;;;;;5048517;28;20533;-61
2021/05/22 00:59:47;;;;;;;2.50;2.40;;;13.50;99.90;;;;;;5050322;28;20254;-61
2021/05/22 01:02:21;;;;;;;2.63;2.53;;;13.50;99.90;;;;;;5049499;28;20525;-64
2021/05/22 01:04:46;;;;;;;2.60;2.40;;;13.40;99.90;;;;;;5051725;28;20183;-61
2021/05/22 01:07:12;;;;;;;2.90;2.57;;;13.50;45.10;;;;;;5047247;28;21087;-61
2021/05/22 01:09:40;;;;;;;2.70;2.30;;;13.50;1.00;;;;;;5048308;28;20189;-61
2021/05/22 01:12:07;;;;;;;3.17;2.97;;;13.50;83.10;;;;;;5046678;28;20811;-61
2021/05/22 01:14:48;;;;;;;2.80;2.60;;;13.50;99.90;;;;;;5046628;28;21417;-61
2021/05/22 01:17:16;;;;;;;2.87;2.67;;;13.50;99.90;;;;;;5049580;28;20971;-61
2021/05/22 01:19:45;;;;;;;2.73;2.57;;;13.40;34.10;;;;;;5050196;28;20431;-62
2021/05/22 01:22:12;;;;;;;3.13;2.50;;;13.50;99.90;;;;;;5047723;28;20465;-61
2021/05/22 01:24:52;;;;;;;2.50;2.30;;;13.50;1.00;;;;;;5041283;28;20438;-61
2021/05/22 01:27:18;;;;;;;2.60;2.40;;;13.50;1.00;;;;;;5049180;28;20470;-61
2021/05/22 01:29:44;;;;;;;2.70;2.50;;;13.40;1.00;;;;;;5046902;28;20460;-61
2021/05/22 01:32:10;;;;;;;3.17;2.97;;;13.50;30.00;;;;;;5049963;28;20287;-61
2021/05/22 01:34:36;;;;;;;2.90;2.60;;;13.50;1.00;;;;;;5049230;28;20515;-61
2021/05/22 01:37:02;;;;;;;2.77;2.57;;;13.50;99.90;;;;;;5048790;28;20218;-61
2021/05/22 01:39:27;;;;;;;3.73;2.30;;;13.60;99.90;;;;;;5047329;28;20437;-61
2021/05/22 01:41:53;;;;;;;3.30;2.90;;;13.70;99.80;;;;;;5049837;28;20430;-61
2021/05/22 01:44:21;;;;;;;2.70;2.50;;;13.70;99.90;;;;;;5045997;28;20347;-61
2021/05/22 01:46:50;;;;;;;2.80;2.60;;;13.60;99.90;;;;;;5048307;28;20445;-61
2021/05/22 01:49:17;;;;;;;3.30;3.00;;;13.40;99.90;;;;;;5047484;28;20631;-61
2021/05/22 01:51:45;;;;;;;2.73;2.63;;;13.40;1.00;;;;;;5047952;28;20534;-61
2021/05/22 01:54:12;;;;;;;3.00;2.80;;;13.30;1.00;;;;;;5048713;28;20795;-61
2021/05/22 01:56:39;;;;;;;3.30;3.00;;;13.20;99.90;;;;;;5046867;28;20460;-61
2021/05/22 01:59:04;;;;;;;3.47;2.83;;;13.20;99.90;;;;;;5034807;28;20436;-60
2021/05/22 02:01:31;;;;;;;3.97;3.67;;;13.20;1.00;;;;;;5049442;28;20933;-61
2021/05/22 02:04:02;;;;;;;3.50;3.20;;;13.10;1.00;;;;;;5054740;28;20218;-61
2021/05/22 02:06:31;;;;;;;4.73;4.33;;;13.10;1.00;;;;;;5036790;28;21385;-64
2021/05/22 02:09:00;;;;;;;4.43;4.10;;;12.90;11.50;;;;;;5045089;28;20431;-61
2021/05/22 02:11:28;;;;;;;4.70;4.30;;;12.90;1.00;;;;;;5049292;28;20432;-61
2021/05/22 02:13:55;;;;;;;5.20;4.80;;;12.90;99.90;;;;;;5047810;28;20436;-61
2021/05/22 02:16:25;;;;;;;4.97;4.57;;;12.90;1.00;;;;;;5048352;28;21000;-61
2021/05/22 02:18:54;;;;;;;5.23;4.73;;;12.80;1.00;;;;;;5046539;28;20437;-61
2021/05/22 02:21:23;;;;;;;4.87;4.43;;;12.80;99.90;;;;;;5048017;28;20409;-60
2021/05/22 02:23:49;;;;;;;5.27;4.87;;;12.80;1.00;;;;;;5047243;28;20528;-61
2021/05/22 02:26:16;;;;;;;5.53;5.03;;;12.90;99.90;;;;;;5047154;28;20522;-61
2021/05/22 02:28:43;;;;;;;4.63;4.23;;;12.90;99.90;;;;;;5047959;28;21124;-61
2021/05/22 02:31:10;;;;;;;5.03;4.60;;;12.90;99.90;;;;;;5047418;28;20432;-61
2021/05/22 02:33:37;;;;;;;5.00;4.60;;;12.90;1.00;;;;;;5048118;28;20906;-60
2021/05/22 02:36:03;;;;;;;5.43;5.00;;;12.90;1.00;;;;;;5047028;28;20938;-61
2021/05/22 02:38:33;;;;;;;5.23;4.83;;;12.90;98.10;;;;;;5046157;28;20452;-61
2021/05/22 02:41:02;;;;;;;5.03;4.53;;;12.90;1.00;;;;;;5048732;28;20428;-61
2021/05/22 02:43:29;;;;;;;5.17;4.77;;;13.00;1.00;;;;;;5044818;28;20453;-60
2021/05/22 02:45:55;;;;;;;5.03;4.63;;;13.00;1.00;;;;;;5048645;28;21000;-61
2021/05/22 02:48:23;;;;;;;4.87;4.50;;;13.00;1.00;;;;;;5044378;28;20447;-61
2021/05/22 02:50:50;;;;;;;4.77;4.47;;;13.00;1.00;;;;;;5048691;28;20953;-62
2021/05/22 02:53:22;;;;;;;5.33;4.83;;;13.00;1.00;;;;;;5047773;28;20489;-61
2021/05/22 02:55:49;;;;;;;5.10;4.60;;;13.00;99.90;;;;;;5035502;28;20575;-60
2021/05/22 02:58:16;;;;;;;4.70;4.30;;;13.00;1.00;;;;;;5047147;28;20871;-61
2021/05/22 03:00:43;;;;;;;5.57;5.07;;;13.00;1.00;;;;;;5053046;28;20458;-61
2021/05/22 03:03:09;;;;;;;4.67;4.20;;;13.00;99.90;;;;;;5052073;28;20467;-61
2021/05/22 03:05:35;;;;;;;4.70;4.30;;;13.00;1.00;;;;;;5052556;28;20965;-61
2021/05/22 03:08:01;;;;;;;4.80;4.40;;;13.00;1.00;;;;;;5052021;28;20187;-61
2021/05/22 03:10:28;;;;;;;7.43;4.90;;;13.00;1.00;;;;;;5049775;28;20523;-61
2021/05/22 03:12:54;;;;;;;5.40;4.47;;;13.00;1.00;;;;;;5051731;28;20432;-61
2021/05/22 03:15:20;;;;;;;4.83;4.43;;;13.00;1.00;;;;;;5050545;28;20456;-61
2021/05/22 03:17:45;;;;;;;4.60;4.27;;;12.90;1.00;;;;;;5052091;28;20197;-61
2021/05/22 03:20:11;;;;;;;4.03;3.73;;;12.90;1.00;;;;;;5051036;28;20273;-59
2021/05/22 03:22:36;;;;;;;4.27;3.87;;;12.90;1.00;;;;;;5052563;28;20183;-61
2021/05/22 03:25:03;;;;;;;4.70;4.30;;;12.90;1.00;;;;;;5051398;28;20185;-62
2021/05/22 03:27:30;;;;;;;4.00;3.77;;;12.90;1.00;;;;;;5049989;28;20186;-60
2021/05/22 03:29:56;;;;;;;4.23;3.93;;;12.90;1.00;;;;;;5049738;28;20437;-65
2021/05/22 03:32:22;;;;;;;4.13;3.90;;;12.90;1.00;;;;;;5051629;28;20417;-61
2021/05/22 03:34:47;;;;;;;4.13;3.83;;;12.90;1.00;;;;;;5050535;28;20487;-61
2021/05/22 03:37:13;;;;;;;4.00;3.70;;;12.90;1.00;;;;;;5051374;28;20225;-61
2021/05/22 03:39:39;;;;;;;4.10;3.70;;;12.90;1.00;;;;;;5049735;28;20182;-61
2021/05/22 03:42:05;;;;;;;3.70;3.50;;;12.90;1.00;;;;;;5052208;28;20805;-61
2021/05/22 03:44:30;;;;;;;3.80;3.57;;;12.90;99.90;;;;;;5049656;28;20240;-61
2021/05/22 03:46:56;;;;;;;3.70;3.50;;;12.90;99.90;;;;;;5051962;28;20431;-61
2021/05/22 03:49:21;;;;;;;3.70;3.43;;;12.80;28.40;;;;;;5048770;28;20521;-61
2021/05/22 03:51:47;;;;;;;4.03;3.77;;;12.80;99.90;;;;;;5051742;28;20269;-61
2021/05/22 03:54:12;;;;;;;4.33;3.60;;;12.80;99.90;;;;;;5049680;28;20186;-64
2021/05/22 03:56:38;;;;;;;4.23;3.93;;;12.80;99.90;;;;;;5049739;28;20205;-60
2021/05/22 03:59:04;;;;;;;4.00;3.70;;;12.80;99.90;;;;;;5049318;28;20859;-61
2021/05/22 04:01:29;;;;;;;3.90;3.70;;;12.80;99.90;;;;;;5050939;28;20166;-62
2021/05/22 04:03:56;;;;;;;4.10;3.80;;;12.80;56.50;;;;;;5049266;28;20190;-61
2021/05/22 04:06:21;;;;;;;3.90;3.60;;;12.80;99.90;;;;;;5048079;28;20198;-62
2021/05/22 04:08:47;;;;;;;3.80;3.50;;;12.80;11.30;;;;;;5049494;28;20444;-61
2021/05/22 04:11:12;;;;;;;3.93;3.73;;;12.80;53.80;;;;;;5049276;28;20189;-61
2021/05/22 04:13:38;;;;;;;4.57;4.10;;;12.80;96.00;;;;;;5050161;28;20174;-61
2021/05/22 04:16:04;;;;;;;4.10;3.83;;;12.90;99.90;;;;;;5051197;28;20247;-61
2021/05/22 04:18:29;;;;;;;4.37;3.97;;;12.90;99.90;;;;;;5049314;28;20235;-61
2021/05/22 04:20:55;;;;;;;3.97;3.67;;;12.90;1.00;;;;;;5049992;28;20436;-61
2021/05/22 04:23:20;;;;;;;4.10;3.80;;;12.90;1.00;;;;;;5049663;28;20193;-61
2021/05/22 04:25:46;;;;;;;4.30;4.00;;;12.90;1.00;;;;;;5050328;28;20251;-61
2021/05/22 04:28:11;;;;;;;3.90;3.70;;;12.90;1.00;;;;;;5050662;28;20892;-61
2021/05/22 04:30:37;;;;;;;4.30;4.00;;;13.00;1.00;;;;;;5049348;28;20198;-61
2021/05/22 04:33:03;;;;;;;4.33;3.93;;;13.00;1.00;;;;;;5050295;28;20197;-61
2021/05/22 04:35:28;;;;;;;3.80;3.50;;;13.10;1.00;;;;;;5050070;28;20207;-61
2021/05/22 04:37:54;;;;;;;4.17;3.77;;;13.10;99.90;;;;;;5050919;28;20534;-61
2021/05/22 04:40:20;;;;;;;4.17;3.83;;;13.10;99.90;;;;;;5048006;28;20205;-65
2021/05/22 04:42:45;;;;;;;3.87;3.60;;;13.20;99.90;;;;;;5050684;28;20178;-62
2021/05/22 04:45:11;;;;;;;4.10;3.80;;;13.20;1.00;;;;;;5046457;28;20248;-65
2021/05/22 04:47:38;;;;;;;3.70;3.47;;;13.20;60.60;;;;;;5051057;28;20193;-61
2021/05/22 04:50:05;;;;;;;4.10;3.80;;;13.20;99.40;;;;;;5047721;28;20420;-62
2021/05/22 04:52:31;;;;;;;3.80;3.50;;;13.30;99.90;;;;;;5049600;28;20456;-61
2021/05/22 04:54:57;;;;;;;4.50;4.10;;;13.30;99.90;;;;;;5048885;28;20896;-62
2021/05/22 04:57:22;;;;;;;3.70;3.50;;;13.40;99.90;;;;;;5049456;28;20233;-62
2021/05/22 04:59:48;;;;;;;3.33;3.13;;;13.40;99.90;;;;;;5048873;28;20187;-62
2021/05/22 05:02:13;;;;;;;4.03;3.73;;;13.50;99.90;;;;;;5048390;28;20734;-61
2021/05/22 05:04:39;;;;;;;3.40;3.10;;;13.50;99.90;;;;;;5048567;28;20191;-61
2021/05/22 05:07:05;;;;;;;3.80;3.50;;;13.60;1.00;;;;;;5049157;28;20210;-61
2021/05/22 05:09:35;;;;;;;3.30;3.10;;;13.80;99.90;;;;;;5047841;28;20915;-60
2021/05/22 05:12:05;;;;;;;3.97;3.77;;;13.60;99.90;;;;;;5048750;28;20436;-60
2021/05/22 05:14:31;;;;;;;4.30;3.90;;;13.60;1.00;;;;;;5049240;28;20949;-61
2021/05/22 05:16:57;;;;;;;4.50;3.90;;;13.60;99.90;;;;;;5047382;28;20481;-61
2021/05/22 05:19:28;;;;;;;3.73;3.43;;;13.70;1.00;;;;;;5049826;28;20183;-61
2021/05/22 05:21:54;;;;;;;3.87;3.43;;;13.70;99.90;;;;;;5049425;28;20225;-60
2021/05/22 05:24:20;;;;;;;3.87;3.57;;;13.80;99.90;;;;;;5047773;28;20786;-61
2021/05/22 05:26:45;;;;;;;3.60;3.40;;;13.80;99.90;;;;;;5048894;28;20451;-60
2021/05/22 05:29:11;;;;;;;4.00;3.70;;;13.90;99.90;;;;;;5039568;28;20635;-61
2021/05/22 05:31:37;;;;;;;3.90;3.70;;;14.10;1.00;;;;;;5047139;28;20195;-61
2021/05/22 05:34:03;;;;;;;4.17;3.87;;;14.20;1.00;;;;;;5058515;28;20572;-61
2021/05/22 05:36:28;;;;;;;3.87;3.57;;;14.30;99.90;;;;;;5053426;28;20309;-61
2021/05/22 05:38:54;;;;;;;3.33;3.13;;;14.40;99.90;;;;;;5046271;28;20423;-61
2021/05/22 05:41:19;;;;;;;3.70;3.50;;;14.40;1.00;;;;;;5040118;28;20275;-63
2021/05/22 05:43:45;;;;;;;3.57;3.27;;;14.30;1.00;;;;;;5038502;28;20196;-61
2021/05/22 05:46:11;;;;;;;3.00;2.80;;;14.30;1.00;;;;;;5039758;28;20281;-61
2021/05/22 05:48:36;;;;;;;2.87;2.67;;;14.10;99.90;;;;;;5039446;28;20182;-61
2021/05/22 05:51:02;;;;;;;2.67;2.47;;;14.10;99.90;;;;;;5036245;28;20436;-61
2021/05/22 05:53:28;;;;;;;3.33;3.03;;;14.10;99.90;;;;;;5038739;28;20604;-61
2021/05/22 05:55:53;;;;;;;2.83;2.27;;;13.90;99.90;;;;;;5037904;28;20569;-61
2021/05/22 05:58:19;;;;;;;2.83;2.63;;;13.70;1.00;;;;;;5038426;28;20185;-60
2021/05/22 06:00:44;;;;;;;2.67;2.47;;;13.10;1.00;;;;;;5039364;28;20185;-59
2021/05/22 06:03:10;;;;;;;2.33;2.13;;;12.60;99.90;;;;;;5039691;28;20196;-60
2021/05/22 06:05:35;;;;;;;2.20;2.03;;;12.10;1.00;;;;;;5039529;28;20189;-60
2021/05/22 06:08:01;;;;;;;2.47;1.80;;;11.70;1.00;;;;;;5040583;28;20197;-57
2021/05/22 06:10:27;;;;;;;2.30;1.90;;;11.50;1.00;;;;;;5039624;28;20193;-59
2021/05/22 06:12:53;;;;;;;2.10;1.90;;;11.40;1.00;;;;;;5039325;28;20277;-60
2021/05/22 06:17:45;;;;;;;2.23;1.50;;;11.30;1.00;;;;;;5039957;28;20427;-59
2021/05/22 06:20:11;;;;;;;1.40;1.30;;;11.20;1.00;;;;;;5038214;28;20284;-59
2021/05/22 06:22:37;;;;;;;1.50;1.30;;;11.20;1.00;;;;;;5039627;28;20197;-59
2021/05/22 06:25:03;;;;;;;1.30;1.20;;;11.20;1.00;;;;;;5039836;28;20420;-60
2021/05/22 06:27:29;;;;;;;1.83;1.50;;;11.20;1.00;;;;;;5038926;28;20244;-60
2021/05/22 06:29:54;;;;;;;1.70;1.30;;;11.20;1.00;;;;;;5035071;28;20485;-60
2021/05/22 06:32:20;;;;;;;1.30;1.20;;;11.30;1.00;;;;;;5039204;28;20178;-60
2021/05/22 06:34:45;;;;;;;2.03;1.40;;;11.40;1.00;;;;;;5038565;28;20186;-60
2021/05/22 06:37:11;;;;;;;2.30;1.50;;;11.40;1.00;;;;;;5038878;28;20686;-60
2021/05/22 06:39:37;;;;;;;2.13;1.50;;;11.40;1.00;;;;;;5036453;28;20186;-60
2021/05/22 06:42:02;;;;;;;1.40;1.10;;;11.50;99.90;;;;;;5037341;28;20178;-60
2021/05/22 06:44:36;;;;;;;1.10;1.10;;;11.60;1.00;;;;;;5038156;28;20789;-59
2021/05/22 06:47:02;;;;;;;1.30;1.20;;;11.60;1.00;;;;;;5031709;28;20463;-55
2021/05/22 06:49:31;;;;;;;1.40;1.30;;;11.80;99.90;;;;;;5048031;28;20437;-60
2021/05/22 06:52:02;;;;;;;1.60;1.40;;;11.80;99.90;;;;;;5046088;28;20185;-60
2021/05/22 06:54:30;;;;;;;1.10;1.10;;;12.00;99.90;;;;;;5048164;28;20473;-60
2021/05/22 06:56:56;;;;;;;1.53;1.40;;;12.10;6.60;;;;;;5047284;28;20482;-60
2021/05/22 06:59:21;;;;;;;1.63;1.40;;;12.30;1.00;;;;;;5047240;28;20428;-60
2021/05/22 07:01:47;;;;;;;1.40;1.30;;;12.40;1.00;;;;;;5048268;28;20205;-58
2021/05/22 07:04:13;;;;;;;1.73;1.30;;;12.60;1.00;;;;;;5048434;28;20193;-60
2021/05/22 07:06:38;;;;;;;1.50;1.40;;;12.80;98.60;;;;;;5045597;28;20214;-60
2021/05/22 07:09:04;;;;;;;2.17;1.70;;;13.00;99.90;;;;;;5047272;28;20186;-60
2021/05/22 07:11:30;;;;;;;2.03;1.60;;;13.00;99.90;;;;;;5048819;28;20193;-60
2021/05/22 07:13:56;;;;;;;2.10;1.90;;;13.10;99.90;;;;;;5047427;28;20432;-61
2021/05/22 07:16:21;;;;;;;2.50;1.87;;;13.10;1.00;;;;;;5050288;28;20213;-60
2021/05/22 07:18:47;;;;;;;2.23;2.03;;;13.20;1.00;;;;;;5048100;28;20178;-61
2021/05/22 07:21:14;;;;;;;1.67;1.57;;;13.20;1.00;;;;;;5048571;28;20252;-61
2021/05/22 07:23:39;;;;;;;2.20;2.10;;;13.20;1.00;;;;;;5045858;28;20652;-60
2021/05/22 07:26:05;;;;;;;2.27;2.17;;;13.20;99.90;;;;;;5048757;28;20432;-59
2021/05/22 07:28:32;;;;;;;2.50;2.00;;;13.20;55.50;;;;;;5047463;28;20262;-60
2021/05/22 07:31:00;;;;;;;3.00;2.20;;;13.30;99.90;;;;;;5048574;28;20671;-60
2021/05/22 07:33:27;;;;;;;1.90;1.80;;;13.50;99.90;;;;;;5047885;28;20512;-60
2021/05/22 07:35:53;;;;;;;2.40;2.17;;;13.70;1.00;;;;;;5048612;28;20468;-60
2021/05/22 07:38:19;;;;;;;2.50;2.30;;;13.70;99.90;;;;;;5047303;28;20448;-60
2021/05/22 07:40:45;;;;;;;2.50;2.40;;;13.80;99.90;;;;;;5048548;28;20179;-60
2021/05/22 07:43:11;;;;;;;2.67;2.20;;;13.80;99.90;;;;;;5047022;28;20437;-62
2021/05/22 07:45:36;;;;;;;2.50;2.30;;;14.00;99.90;;;;;;5051174;28;20312;-60
2021/05/22 07:48:03;;;;;;;2.80;2.47;;;14.20;99.90;;;;;;5051282;28;20182;-65
2021/05/22 07:50:30;;;;;;;2.27;2.00;;;14.20;99.90;;;;;;5051987;28;20699;-61
2021/05/22 07:52:56;;;;;;;2.63;2.47;;;14.50;9.50;;;;;;5050941;28;20431;-60
2021/05/22 07:55:21;;;;;;;2.70;2.50;;;14.60;1.00;;;;;;5051966;28;20785;-60
2021/05/22 07:57:47;;;;;;;2.87;2.60;;;14.60;1.00;;;;;;5052064;28;20178;-60
2021/05/22 08:00:13;;;;;;;2.60;2.40;;;14.70;1.00;;;;;;5049310;28;20197;-59
2021/05/22 08:02:39;;;;;;;2.50;2.37;;;14.80;1.00;;;;;;5049211;28;20186;-61
2021/05/22 08:05:06;;;;;;;2.63;2.30;;;14.80;1.00;;;;;;5051528;28;20432;-61
2021/05/22 08:07:32;;;;;;;2.50;2.20;;;14.60;1.00;;;;;;5051204;28;20178;-59
2021/05/22 08:09:57;;;;;;;2.50;2.30;;;14.60;1.00;;;;;;5050220;28;20433;-61
2021/05/22 08:12:23;;;;;;;2.43;2.33;;;14.80;1.00;;;;;;5049367;28;20191;-61
2021/05/22 08:14:50;;;;;;;2.43;2.33;;;14.90;1.00;;;;;;5050521;28;20227;-61
2021/05/22 08:17:16;;;;;;;2.20;2.10;;;15.10;1.00;;;;;;5050774;28;20220;-61
2021/05/22 08:19:42;;;;;;;2.77;2.27;;;15.30;1.00;;;;;;5051027;28;20534;-60
2021/05/22 08:22:07;;;;;;;2.47;2.37;;;15.20;1.00;;;;;;5051772;28;21060;-60
2021/05/22 08:24:33;;;;;;;2.30;2.10;;;15.20;1.00;;;;;;5051309;28;20186;-61
2021/05/22 08:26:58;;;;;;;2.53;2.33;;;15.30;1.00;;;;;;5050511;28;20221;-61
2021/05/22 08:29:24;;;;;;;2.60;2.50;;;15.50;1.00;;;;;;5050255;28;20280;-61
2021/05/22 08:31:49;;;;;;;2.97;2.63;;;15.70;1.00;;;;;;5050753;28;20272;-61
2021/05/22 08:34:15;;;;;;;2.40;2.20;;;15.70;1.00;;;;;;5051241;28;20240;-61
2021/05/22 08:36:40;;;;;;;2.70;2.50;;;15.60;1.00;;;;;;5051006;28;20264;-60
2021/05/22 08:39:06;;;;;;;2.53;2.43;;;15.60;1.00;;;;;;5049261;28;20182;-61
2021/05/22 08:41:33;;;;;;;2.83;2.70;;;15.40;1.00;;;;;;5051122;28;20656;-61
2021/05/22 08:44:01;;;;;;;2.60;2.40;;;15.50;1.00;;;;;;5050053;28;20225;-61
2021/05/22 08:46:29;;;;;;;2.70;2.50;;;15.50;1.00;;;;;;5051094;28;20429;-62
2021/05/22 08:48:54;;;;;;;3.23;2.47;;;15.80;1.00;;;;;;5049474;28;20912;-62
2021/05/22 08:51:21;;;;;;;2.80;2.60;;;16.00;1.00;;;;;;5049635;28;20497;-62
2021/05/22 08:53:47;;;;;;;2.93;2.80;;;16.30;1.00;;;;;;5050391;28;20193;-61
2021/05/22 08:56:12;;;;;;;2.70;2.50;;;16.30;99.90;;;;;;5050731;28;20469;-61
2021/05/22 08:58:38;;;;;;;2.90;2.70;;;16.20;99.90;;;;;;5049161;28;20485;-61
2021/05/22 09:01:05;;;;;;;2.87;2.67;;;16.20;99.90;;;;;;5050798;28;20189;-61
2021/05/22 09:03:31;;;;;;;2.27;2.17;;;16.20;99.90;;;;;;5050583;28;20180;-61
2021/05/22 09:05:57;;;;;;;3.33;2.87;;;16.30;1.00;;;;;;5049769;28;20479;-61
2021/05/22 09:08:23;;;;;;;2.90;2.70;;;16.50;99.90;;;;;;5050829;28;20426;-61
2021/05/22 09:10:52;;;;;;;2.50;2.40;;;16.50;99.90;;;;;;5050771;28;20481;-61
2021/05/22 09:13:26;;;;;;;2.90;2.70;;;16.50;99.90;;;;;;5050284;28;20663;-61
2021/05/22 09:15:57;;;;;;;3.00;2.80;;;16.70;99.90;;;;;;5052884;28;20465;-61
2021/05/22 09:18:25;;;;;;;3.10;2.80;;;17.10;99.90;;;;;;5049897;28;20523;-61
2021/05/22 09:20:59;;;;;;;2.60;2.50;;;17.30;99.90;;;;;;5050328;28;20435;-63
2021/05/22 09:23:29;;;;;;;3.20;3.00;;;17.90;99.90;;;;;;5049198;28;20464;-61
2021/05/22 09:25:59;;;;;;;4.73;2.83;;;17.90;99.90;;;;;;5049433;28;20550;-62
2021/05/22 09:28:56;;;;;;;2.83;2.63;;;18.20;99.90;;;;;;5050238;28;20424;-61
2021/05/22 09:31:24;;;;;;;2.87;2.50;;;17.90;99.90;;;;;;5046845;28;20434;-61
2021/05/22 09:34:00;;;;;;;2.63;2.53;;;18.30;99.90;;;;;;5047874;28;20468;-61
2021/05/22 09:36:26;;;;;;;3.03;2.80;;;18.80;99.90;;;;;;5050048;28;20554;-62
2021/05/22 09:38:54;;;;;;;3.03;2.83;;;19.10;99.90;;;;;;5049767;28;20511;-62
2021/05/22 09:41:32;;;;;;;2.90;2.60;;;19.00;99.90;;;;;;5049841;28;20447;-61
2021/05/22 09:44:17;;;;;;;2.50;2.40;;;19.50;99.90;;;;;;5035953;28;20456;-62
2021/05/22 09:46:46;;;;;;;3.03;2.83;;;19.00;99.90;;;;;;5048284;28;20436;-61
2021/05/22 09:49:23;;;;;;;2.80;2.60;;;18.00;99.90;;;;;;5048598;28;20418;-61
2021/05/22 09:51:59;;;;;;;2.93;2.73;;;17.30;99.90;;;;;;5048415;28;20441;-61
2021/05/22 09:54:43;;;;;;;3.77;3.57;;;17.30;99.90;;;;;;5049517;28;20419;-61
2021/05/22 09:57:10;;;;;;;3.20;2.67;;;17.40;99.90;;;;;;5049085;28;20544;-61
2021/05/22 09:59:36;;;;;;;3.30;3.13;;;17.10;99.90;;;;;;5049214;28;20432;-57
2021/05/22 10:02:02;;;;;;;2.40;2.30;;;16.90;99.90;;;;;;5049648;28;20921;-61
2021/05/22 10:04:28;;;;;;;2.80;2.60;;;17.20;99.90;;;;;;5046987;28;20473;-61
2021/05/22 10:06:56;;;;;;;4.53;2.87;;;17.20;99.90;;;;;;5049099;28;20794;-61
2021/05/22 10:09:24;;;;;;;2.80;2.70;;;17.20;99.90;;;;;;5049265;28;20422;-61
2021/05/22 10:12:08;;;;;;;2.50;2.30;;;17.40;99.90;;;;;;5048136;28;20432;-64
2021/05/22 10:14:36;;;;;;;2.70;2.60;;;17.20;99.90;;;;;;5047507;28;20423;-61
2021/05/22 10:17:03;;;;;;;3.07;2.87;;;17.50;99.90;;;;;;5048044;28;20861;-61
2021/05/22 10:19:30;;;;;;;4.23;3.00;;;17.40;99.90;;;;;;5048137;28;20970;-61
2021/05/22 10:21:57;;;;;;;3.10;2.90;;;17.40;99.90;;;;;;5049023;28;20431;-61
2021/05/22 10:24:24;;;;;;;5.30;3.20;;;18.10;99.90;;;;;;5049249;28;20447;-61
2021/05/22 10:26:51;;;;;;;3.00;2.60;;;18.60;99.90;;;;;;5049051;28;20816;-61
2021/05/22 10:29:17;;;;;;;2.70;2.50;;;18.60;99.90;;;;;;5048165;28;20916;-61
2021/05/22 10:31:43;;;;;;;3.00;2.90;;;18.60;99.90;;;;;;5049467;28;20423;-61
2021/05/22 10:34:10;;;;;;;2.90;2.70;;;19.30;99.90;;;;;;5049074;28;20477;-61
2021/05/22 10:36:56;;;;;;;2.93;2.83;;;19.70;99.90;;;;;;5047946;28;20246;-62
2021/05/22 10:39:33;;;;;;;3.20;2.40;;;20.20;99.90;;;;;;5049070;28;20408;-61
2021/05/22 10:42:00;;;;;;;2.67;2.47;;;19.80;99.90;;;;;;5048461;28;20428;-61
2021/05/22 10:44:35;;;;;;;3.00;2.80;;;19.90;99.90;;;;;;5048077;28;20476;-61
2021/05/22 10:47:09;;;;;;;3.30;3.10;;;20.00;99.90;;;;;;5048781;28;20417;-61
2021/05/22 10:49:54;;;;;;;3.20;2.83;;;20.00;99.90;;;;;;5048304;28;20439;-61
2021/05/22 10:52:21;;;;;;;2.57;2.40;;;20.10;99.90;;;;;;5037554;28;20456;-62
2021/05/22 10:54:57;;;;;;;4.40;2.80;;;20.50;99.90;;;;;;5048890;28;20459;-61
2021/05/22 10:57:24;;;;;;;2.97;2.77;;;20.80;99.90;;;;;;5048340;28;20473;-62
2021/05/22 11:00:14;;;;;;;3.00;2.70;;;20.60;99.90;;;;;;5053926;28;20444;-61
2021/05/22 11:03:10;;;;;;;3.00;2.80;;;20.20;99.90;;;;;;5040085;28;20520;-61
2021/05/22 11:05:39;;;;;;;2.60;2.43;;;19.60;99.90;;;;;;5048494;28;20969;-61
2021/05/22 11:08:04;;;;;;;2.70;2.60;;;19.20;99.90;;;;;;5048941;28;20428;-61
2021/05/22 11:10:36;;;;;;;2.57;2.47;;;19.60;99.90;;;;;;5047890;28;20439;-61
2021/05/22 11:13:02;;;;;;;2.60;2.47;;;19.70;99.90;;;;;;5048832;28;20205;-61
2021/05/22 11:16:02;;;;;;;3.37;2.80;;;19.60;99.90;;;;;;5048687;28;20431;-61
2021/05/22 11:18:58;;;;;;;2.93;2.73;;;19.40;99.90;;;;;;5048487;28;20419;-61
2021/05/22 11:21:24;;;;;;;2.20;2.10;;;19.30;99.90;;;;;;5039458;28;20455;-61
2021/05/22 11:24:03;;;;;;;2.23;2.13;;;19.80;99.90;;;;;;5052438;28;20492;-61
2021/05/22 11:27:02;;;;;;;2.67;2.50;;;19.70;99.90;;;;;;5050899;28;20428;-61
2021/05/22 11:29:50;;;;;;;3.20;2.57;;;19.90;99.90;;;;;;5051760;28;21148;-60
2021/05/22 11:32:47;;;;;;;4.07;2.20;;;20.30;99.90;;;;;;5053107;28;20418;-61
2021/05/22 11:35:24;;;;;;;2.30;2.20;;;20.50;99.90;;;;;;5052247;28;20950;-61
2021/05/22 11:37:51;;;;;;;3.30;3.00;;;20.30;99.90;;;;;;5051223;28;20424;-61
2021/05/22 11:40:39;;;;;;;3.63;2.10;;;20.60;99.90;;;;;;5051014;28;20426;-61
2021/05/22 11:43:14;;;;;;;2.40;2.20;;;21.00;99.90;;;;;;5051924;28;20423;-61
2021/05/22 11:45:41;;;;;;;2.37;2.27;;;20.80;99.90;;;;;;5052134;28;20473;-63
2021/05/22 11:48:38;;;;;;;2.70;2.50;;;20.60;99.90;;;;;;5051330;28;20448;-61
2021/05/22 11:51:11;;;;;;;2.37;2.27;;;20.60;99.90;;;;;;5051778;28;20439;-63
2021/05/22 11:53:39;;;;;;;2.93;2.70;;;20.60;99.90;;;;;;5052467;28;20558;-61
2021/05/22 11:56:14;;;;;;;2.60;2.40;;;20.40;99.90;;;;;;5051173;28;20578;-61
2021/05/22 11:58:51;;;;;;;3.00;2.20;;;19.90;99.90;;;;;;5051695;28;20503;-61
2021/05/22 12:01:19;;;;;;;3.83;2.60;;;20.50;99.90;;;;;;5050976;28;20431;-61
2021/05/22 12:03:51;;;;;;;2.60;2.50;;;20.50;99.90;;;;;;5052039;28;20445;-60
2021/05/22 12:06:34;;;;;;;3.57;2.53;;;19.80;99.90;;;;;;5051645;28;20838;-61
2021/05/22 12:09:11;;;;;;;2.80;2.70;;;18.90;99.90;;;;;;5049965;28;20543;-60
2021/05/22 12:12:00;;;;;;;2.40;2.20;;;18.70;99.90;;;;;;5051727;28;20852;-61
2021/05/22 12:14:39;;;;;;;2.80;2.60;;;18.40;99.90;;;;;;5051436;28;20415;-60
2021/05/22 12:17:06;;;;;;;3.00;2.77;;;18.10;99.90;;;;;;5058845;28;20512;-61
2021/05/22 12:19:40;;;;;;;3.20;2.40;;;18.20;99.90;;;;;;5051575;28;20417;-61
2021/05/22 12:22:06;;;;;;;2.80;2.70;;;18.40;99.90;;;;;;5044098;28;20435;-61
2021/05/22 12:24:33;;;;;;;2.80;2.40;;;19.00;99.90;;;;;;5051712;28;20495;-61
2021/05/22 12:27:00;;;;;;;2.33;2.23;;;19.70;99.90;;;;;;5050559;28;20458;-61
2021/05/22 12:29:28;;;;;;;2.53;2.40;;;20.40;99.90;;;;;;5048991;28;20439;-60
2021/05/22 12:32:01;;;;;;;2.50;2.30;;;19.90;99.90;;;;;;5048709;28;20791;-61
2021/05/22 12:34:32;;;;;;;3.73;2.70;;;19.30;99.90;;;;;;5051378;28;20413;-60
2021/05/22 12:37:00;;;;;;;2.13;2.03;;;19.10;99.90;;;;;;5045606;28;20700;-61
2021/05/22 12:39:39;;;;;;;3.40;2.60;;;19.40;99.90;;;;;;5050817;28;20412;-61
2021/05/22 12:42:21;;;;;;;2.63;2.53;;;19.70;99.90;;;;;;5049778;28;20553;-61
2021/05/22 12:44:48;;;;;;;2.13;2.03;;;19.80;99.90;;;;;;5060413;28;20785;-60
2021/05/22 12:47:14;;;;;;;2.40;2.30;;;19.20;99.90;;;;;;5051136;28;20541;-61
2021/05/22 12:49:55;;;;;;;2.70;2.50;;;18.80;99.90;;;;;;5050050;28;20478;-61
2021/05/22 12:52:21;;;;;;;2.37;2.27;;;19.40;99.90;;;;;;5050604;28;20531;-60
2021/05/22 12:54:47;;;;;;;2.87;2.60;;;19.80;99.90;;;;;;5050688;28;20448;-61
2021/05/22 12:57:17;;;;;;;2.67;2.53;;;20.30;99.90;;;;;;5050519;28;20477;-60
2021/05/22 12:59:53;;;;;;;2.70;2.50;;;20.00;99.90;;;;;;5049132;28;20934;-61